Accord, Massachusetts
Current Conditions -  °F | °C
As of 9:54 PM on Tuesday 21 Oct 2014 (Local Time) from KBOS Reporting Station
Overcast Overcast  
Wind Chill: 57°   Ceiling: 700
Heat Index: 57°   Visibility: 9mi
Dew Point: 54°   Wind: 12mph
Humidity: 89%   Direction: 360°N
Pressure: 29.97"   Gusts: NA
Location:  42.17°N, 70.88°W
Report Text: KBOS 220154Z 36010KT 9SM BKN007 OVC025 14/12 A2997 RMK AO2 SLP148 T01390122
Loading
Personal Weather Stations






























Interactive Weather Map New forecast layout! Learn more

10-Day Weather Forecast

Advertisements
Track Severe Weather on mobile